Terminal Aerodrome Forecast
Issued by NWS Charleston, WV

Home | Current Version | Previous Version | Text Only | Print | Product List | Glossary On
Versions: 1 2 3 4 5 6 7 8 9 10 11 12 13 14 15 16 17 18 19 20 21 22 23 24 25 26
653
FTUS41 KRLX 231739
TAFEKN
TAF
KEKN 231739Z 2318/2418 26015G28KT P6SM BKN035
     FM240000 27015G25KT P6SM BKN023
     FM240300 27015G29KT 5SM -SHRASN OVC016
     FM241200 27011G17KT 5SM -SHSN OVC017=

USA.gov is the U.S. government's official web portal to all federal, state and local government web resources and services.